Time;durP1;ratioP1;P1;durP2;ratioP2;P2;SDS_P1;SDS_P2;PMS_P1;PMS_P2;Temp;Humidity;BMP_temperature;BMP_pressure;BME280_temperature;BME280_humidity;BME280_pressure;Samples;Min_cycle;Max_cycle;Signal;HPM_P1;HPM_P2
2023/03/15 00:00:43;;;;;;;;;;;;;;;;;;5096064;28;19923;-88
2023/03/15 00:03:09;;;;;;;;;;;;;;;;;;5096040;28;19924;-88
2023/03/15 00:05:34;;;;;;;;;;;;;;;;;;5095635;28;19955;-88
2023/03/15 00:08:00;;;;;;;;;;;;;;;;;;5095735;28;20015;-87
2023/03/15 00:10:26;;;;;;;;;;;;;;;;;;5095777;28;19916;-87
2023/03/15 00:12:51;;;;;;;;;;;;;;;;;;5095595;28;20451;-87
2023/03/15 00:15:17;;;;;;;;;;;;;;;;;;5095642;28;20082;-87
2023/03/15 00:17:43;;;;;;;;;;;;;;;;;;5095692;28;20033;-87
2023/03/15 00:20:09;;;;;;;;;;;;;;;;;;5095525;28;20395;-89
2023/03/15 00:22:35;;;;;;;;;;;;;;;;;;5095416;28;19923;-87
2023/03/15 00:25:00;;;;;;;;;;;;;;;;;;5077337;28;19916;-87
2023/03/15 00:27:26;;;;;;;;;;;;;;;;;;5077568;28;19916;-87
2023/03/15 00:29:51;;;;;;;;;;;;;;;;;;5096029;28;20008;-87
2023/03/15 00:32:16;;;;;;;;;;;;;;;;;;5095754;28;19922;-86
2023/03/15 00:34:48;;;;;;;;;;;;;;;;;;5095563;28;19916;-87
2023/03/15 00:37:15;;;;;;;;;;;;;;;;;;5079539;28;19916;-87
2023/03/15 00:39:44;;;;;;;;;;;;;;;;;;5109795;28;19923;-88
2023/03/15 00:42:10;;;;;;;;;;;;;;;;;;5102268;28;19908;-89
2023/03/15 00:44:36;;;;;;;;;;;;;;;;;;5120810;28;19972;-87
2023/03/15 00:47:02;;;;;;;;;;;;;;;;;;5105554;28;19920;-87
2023/03/15 00:49:27;;;;;;;;;;;;;;;;;;5098343;28;19923;-87
2023/03/15 00:51:56;;;;;;;;;;;;;;;;;;5077197;28;20007;-87
2023/03/15 00:54:22;;;;;;;;;;;;;;;;;;5076863;28;19916;-87
2023/03/15 00:56:48;;;;;;;;;;;;;;;;;;5095567;28;20341;-88
2023/03/15 00:59:13;;;;;;;;;;;;;;;;;;5076833;28;19959;-87
2023/03/15 01:01:43;;;;;;;;;;;;;;;;;;5076875;28;19968;-87
2023/03/15 01:04:08;;;;;;;;;;;;;;;;;;5094894;28;19920;-88
2023/03/15 01:06:35;;;;;;;;;;;;;;;;;;5095010;28;19923;-87
2023/03/15 01:09:01;;;;;;;;;;;;;;;;;;5076663;28;19920;-87
2023/03/15 01:11:27;;;;;;;;;;;;;;;;;;5076387;28;19920;-88
2023/03/15 01:13:53;;;;;;;;;;;;;;;;;;5094780;28;19916;-87
2023/03/15 01:16:19;;;;;;;;;;;;;;;;;;5076502;28;19934;-87
2023/03/15 01:18:44;;;;;;;;;;;;;;;;;;5076416;28;19916;-87
2023/03/15 01:21:11;;;;;;;;;;;;;;;;;;5094682;28;19916;-88
2023/03/15 01:23:37;;;;;;;;;;;;;;;;;;5075649;28;19927;-88
2023/03/15 01:26:03;;;;;;;;;;;;;;;;;;5094577;28;19916;-87
2023/03/15 01:28:29;;;;;;;;;;;;;;;;;;5094238;28;20014;-87
2023/03/15 01:30:54;;;;;;;;;;;;;;;;;;5076060;28;20020;-87
2023/03/15 01:33:20;;;;;;;;;;;;;;;;;;5076513;28;19959;-88
2023/03/15 01:35:46;;;;;;;;;;;;;;;;;;5076037;28;19923;-87
2023/03/15 01:38:12;;;;;;;;;;;;;;;;;;5094523;28;19961;-88
2023/03/15 01:40:44;;;;;;;;;;;;;;;;;;5076041;28;20337;-87
2023/03/15 01:43:12;;;;;;;;;;;;;;;;;;5094115;28;20316;-88
2023/03/15 01:45:50;;;;;;;;;;;;;;;;;;5076062;28;19963;-87
2023/03/15 01:48:16;;;;;;;;;;;;;;;;;;5075826;28;19916;-87
2023/03/15 01:50:42;;;;;;;;;;;;;;;;;;5094052;28;19961;-89
2023/03/15 01:53:07;;;;;;;;;;;;;;;;;;5075981;28;19958;-87
2023/03/15 01:55:33;;;;;;;;;;;;;;;;;;5094025;28;19952;-88
2023/03/15 01:57:59;;;;;;;;;;;;;;;;;;5075738;28;19916;-88
2023/03/15 02:00:25;;;;;;;;;;;;;;;;;;5094013;28;19920;-87
2023/03/15 02:03:03;;;;;;;;;;;;;;;;;;5075714;28;19941;-88
2023/03/15 02:05:32;;;;;;;;;;;;;;;;;;5075390;28;19920;-87
2023/03/15 02:07:58;;;;;;;;;;;;;;;;;;5075505;28;20310;-88
2023/03/15 02:10:30;;;;;;;;;;;;;;;;;;5093754;28;19931;-87
2023/03/15 02:12:56;;;;;;;;;;;;;;;;;;5075649;28;19928;-87
2023/03/15 02:15:22;;;;;;;;;;;;;;;;;;5075668;28;19917;-88
2023/03/15 02:17:47;;;;;;;;;;;;;;;;;;5075632;28;20053;-87
2023/03/15 02:20:28;;;;;;;;;;;;;;;;;;5075570;28;19923;-87
2023/03/15 02:22:55;;;;;;;;;;;;;;;;;;5075628;28;19916;-87
2023/03/15 02:25:28;;;;;;;;;;;;;;;;;;5093376;28;19920;-87
2023/03/15 02:27:54;;;;;;;;;;;;;;;;;;5075563;28;19955;-88
2023/03/15 02:30:20;;;;;;;;;;;;;;;;;;5075489;28;19916;-87
2023/03/15 02:32:46;;;;;;;;;;;;;;;;;;5075377;28;19923;-87
2023/03/15 02:35:11;;;;;;;;;;;;;;;;;;5094102;28;19920;-88
2023/03/15 02:37:37;;;;;;;;;;;;;;;;;;5079490;28;19916;-87
2023/03/15 02:40:10;;;;;;;;;;;;;;;;;;5097524;28;19916;-87
2023/03/15 02:42:36;;;;;;;;;;;;;;;;;;5097510;28;19916;-87
2023/03/15 02:45:01;;;;;;;;;;;;;;;;;;5097409;28;19985;-87
2023/03/15 02:47:31;;;;;;;;;;;;;;;;;;5097344;28;20398;-88
2023/03/15 02:49:56;;;;;;;;;;;;;;;;;;5079305;28;19981;-88
2023/03/15 02:52:22;;;;;;;;;;;;;;;;;;5097318;28;20379;-88
2023/03/15 02:54:47;;;;;;;;;;;;;;;;;;5097294;28;19931;-88
2023/03/15 02:57:14;;;;;;;;;;;;;;;;;;5097190;28;19973;-88
2023/03/15 02:59:43;;;;;;;;;;;;;;;;;;5078949;28;19960;-87
2023/03/15 03:02:10;;;;;;;;;;;;;;;;;;5078926;28;20022;-88
2023/03/15 03:04:36;;;;;;;;;;;;;;;;;;5097035;28;19927;-87
2023/03/15 03:07:01;;;;;;;;;;;;;;;;;;5097036;28;19916;-86
2023/03/15 03:09:27;;;;;;;;;;;;;;;;;;5096920;28;20038;-87
2023/03/15 03:11:52;;;;;;;;;;;;;;;;;;5096975;28;19923;-87
2023/03/15 03:14:17;;;;;;;;;;;;;;;;;;5078755;28;20417;-87
2023/03/15 03:16:43;;;;;;;;;;;;;;;;;;5078655;28;19923;-88
2023/03/15 03:19:11;;;;;;;;;;;;;;;;;;5079043;28;19973;-86
2023/03/15 03:21:37;;;;;;;;;;;;;;;;;;5096837;28;20002;-87
2023/03/15 03:24:02;;;;;;;;;;;;;;;;;;5078519;28;20351;-87
2023/03/15 03:26:31;;;;;;;;;;;;;;;;;;5078606;28;20286;-87
2023/03/15 03:28:57;;;;;;;;;;;;;;;;;;5078429;28;20291;-87
2023/03/15 03:31:23;;;;;;;;;;;;;;;;;;5096652;28;19923;-87
2023/03/15 03:33:49;;;;;;;;;;;;;;;;;;5096497;28;19920;-88
2023/03/15 03:36:15;;;;;;;;;;;;;;;;;;5078196;28;19927;-87
2023/03/15 03:38:41;;;;;;;;;;;;;;;;;;5078278;28;19920;-88
2023/03/15 03:41:07;;;;;;;;;;;;;;;;;;5078184;28;20295;-87
2023/03/15 03:43:32;;;;;;;;;;;;;;;;;;5096281;28;19916;-87
2023/03/15 03:45:57;;;;;;;;;;;;;;;;;;5095644;28;19927;-87
2023/03/15 03:48:23;;;;;;;;;;;;;;;;;;5078049;28;20398;-88
2023/03/15 03:50:48;;;;;;;;;;;;;;;;;;5096505;28;19924;-87
2023/03/15 03:53:14;;;;;;;;;;;;;;;;;;5096177;28;19930;-87
2023/03/15 03:55:41;;;;;;;;;;;;;;;;;;5096141;28;19923;-87
2023/03/15 03:58:07;;;;;;;;;;;;;;;;;;5096019;28;19927;-87
2023/03/15 04:00:33;;;;;;;;;;;;;;;;;;5095923;28;19916;-88
2023/03/15 04:03:00;;;;;;;;;;;;;;;;;;5095805;28;19916;-87
2023/03/15 04:05:26;;;;;;;;;;;;;;;;;;5095591;28;19920;-87
2023/03/15 04:07:51;;;;;;;;;;;;;;;;;;5095841;28;19922;-88
2023/03/15 04:10:17;;;;;;;;;;;;;;;;;;5077783;28;19920;-88
2023/03/15 04:12:43;;;;;;;;;;;;;;;;;;5095854;28;19975;-88
2023/03/15 04:15:10;;;;;;;;;;;;;;;;;;5095670;28;20399;-89
2023/03/15 04:17:36;;;;;;;;;;;;;;;;;;5095979;28;20375;-88
2023/03/15 04:20:05;;;;;;;;;;;;;;;;;;5077758;28;19924;-88
2023/03/15 04:22:33;;;;;;;;;;;;;;;;;;5095618;28;19942;-88
2023/03/15 04:25:00;;;;;;;;;;;;;;;;;;5095570;28;19993;-88
2023/03/15 04:27:26;;;;;;;;;;;;;;;;;;5095470;28;20007;-87
2023/03/15 04:29:52;;;;;;;;;;;;;;;;;;5077256;28;20002;-88
2023/03/15 04:32:17;;;;;;;;;;;;;;;;;;5095209;28;20257;-87
2023/03/15 04:34:42;;;;;;;;;;;;;;;;;;5077153;28;19917;-87
2023/03/15 04:37:08;;;;;;;;;;;;;;;;;;5095760;28;19927;-87
2023/03/15 04:39:33;;;;;;;;;;;;;;;;;;5095196;28;19923;-86
2023/03/15 04:41:59;;;;;;;;;;;;;;;;;;5094993;28;19920;-88
2023/03/15 04:44:25;;;;;;;;;;;;;;;;;;5076867;28;19973;-88
2023/03/15 04:46:51;;;;;;;;;;;;;;;;;;5095355;28;19916;-86
2023/03/15 04:49:16;;;;;;;;;;;;;;;;;;5095031;28;19986;-87
2023/03/15 04:51:41;;;;;;;;;;;;;;;;;;5095014;28;19923;-89
2023/03/15 04:54:07;;;;;;;;;;;;;;;;;;5094884;28;19986;-88
2023/03/15 04:56:32;;;;;;;;;;;;;;;;;;5095253;28;19924;-88
2023/03/15 04:58:58;;;;;;;;;;;;;;;;;;5076454;28;19915;-88
2023/03/15 05:01:26;;;;;;;;;;;;;;;;;;5077299;28;19923;-88
2023/03/15 05:03:52;;;;;;;;;;;;;;;;;;5094975;28;19920;-91
2023/03/15 05:06:17;;;;;;;;;;;;;;;;;;5094783;28;19927;-89
2023/03/15 05:08:44;;;;;;;;;;;;;;;;;;5101833;28;19916;-89
2023/03/15 05:11:09;;;;;;;;;;;;;;;;;;5090642;28;19924;-88
2023/03/15 05:13:35;;;;;;;;;;;;;;;;;;5118292;28;19904;-87
2023/03/15 05:16:01;;;;;;;;;;;;;;;;;;5120050;28;19911;-88
2023/03/15 05:18:26;;;;;;;;;;;;;;;;;;5119971;28;19904;-87
2023/03/15 05:20:54;;;;;;;;;;;;;;;;;;5097496;28;19920;-87
2023/03/15 05:23:22;;;;;;;;;;;;;;;;;;5076598;28;19916;-87
2023/03/15 05:25:54;;;;;;;;;;;;;;;;;;5094733;28;20379;-87
2023/03/15 05:28:23;;;;;;;;;;;;;;;;;;5094576;28;20283;-87
2023/03/15 05:30:48;;;;;;;;;;;;;;;;;;5094572;28;20019;-88
2023/03/15 05:33:14;;;;;;;;;;;;;;;;;;5076227;28;20006;-88
2023/03/15 05:35:40;;;;;;;;;;;;;;;;;;5076052;28;19916;-89
2023/03/15 05:38:05;;;;;;;;;;;;;;;;;;5094363;28;19993;-88
2023/03/15 05:40:31;;;;;;;;;;;;;;;;;;5078424;28;19922;-87
2023/03/15 05:42:57;;;;;;;;;;;;;;;;;;5059828;28;20286;-86
2023/03/15 05:45:23;;;;;;;;;;;;;;;;;;5076352;28;19917;-86
2023/03/15 05:47:48;;;;;;;;;;;;;;;;;;5094315;28;19924;-87
2023/03/15 05:50:14;;;;;;;;;;;;;;;;;;5094139;28;19920;-86
2023/03/15 05:52:39;;;;;;;;;;;;;;;;;;5075994;28;19920;-87
2023/03/15 05:55:05;;;;;;;;;;;;;;;;;;5094127;28;19961;-90
2023/03/15 05:57:30;;;;;;;;;;;;;;;;;;5075839;28;20336;-86
2023/03/15 05:59:56;;;;;;;;;;;;;;;;;;5093848;28;19916;-88
2023/03/15 06:02:21;;;;;;;;;;;;;;;;;;5075825;28;20390;-87
2023/03/15 06:04:46;;;;;;;;;;;;;;;;;;5093901;28;19920;-86
2023/03/15 06:07:12;;;;;;;;;;;;;;;;;;5094040;28;20062;-88
2023/03/15 06:09:37;;;;;;;;;;;;;;;;;;5093556;28;20328;-87
2023/03/15 06:12:03;;;;;;;;;;;;;;;;;;5075813;28;19923;-87
2023/03/15 06:14:28;;;;;;;;;;;;;;;;;;5093728;28;20322;-87
2023/03/15 06:16:54;;;;;;;;;;;;;;;;;;5093672;28;19923;-87
2023/03/15 06:19:20;;;;;;;;;;;;;;;;;;5093883;28;19962;-89
2023/03/15 06:21:45;;;;;;;;;;;;;;;;;;5093868;28;19916;-86
2023/03/15 06:24:11;;;;;;;;;;;;;;;;;;5093817;28;20007;-86
2023/03/15 06:26:36;;;;;;;;;;;;;;;;;;5093600;28;19959;-87
2023/03/15 06:29:02;;;;;;;;;;;;;;;;;;5093615;28;20379;-87
2023/03/15 06:31:27;;;;;;;;;;;;;;;;;;5093748;28;20318;-87
2023/03/15 06:33:52;;;;;;;;;;;;;;;;;;5093656;28;19916;-88
2023/03/15 06:36:18;;;;;;;;;;;;;;;;;;5093588;28;19964;-86
2023/03/15 06:38:43;;;;;;;;;;;;;;;;;;5093636;28;19916;-87
2023/03/15 06:41:11;;;;;;;;;;;;;;;;;;5093569;28;19923;-87
2023/03/15 06:43:36;;;;;;;;;;;;;;;;;;5075426;28;19916;-86
2023/03/15 06:46:02;;;;;;;;;;;;;;;;;;5093461;28;19916;-86
2023/03/15 06:48:28;;;;;;;;;;;;;;;;;;5093478;28;20431;-86
2023/03/15 06:50:54;;;;;;;;;;;;;;;;;;5093583;28;19920;-86
2023/03/15 06:53:19;;;;;;;;;;;;;;;;;;5093558;28;19962;-87
2023/03/15 06:55:45;;;;;;;;;;;;;;;;;;5093508;28;20431;-87
2023/03/15 06:58:11;;;;;;;;;;;;;;;;;;5093344;28;19924;-87
2023/03/15 07:00:37;;;;;;;;;;;;;;;;;;5093562;28;20337;-86
2023/03/15 07:03:02;;;;;;;;;;;;;;;;;;5093460;28;19942;-86
2023/03/15 07:05:28;;;;;;;;;;;;;;;;;;5093161;28;19963;-87
2023/03/15 07:07:53;;;;;;;;;;;;;;;;;;5075278;28;20375;-87
2023/03/15 07:10:19;;;;;;;;;;;;;;;;;;5093267;28;19927;-87
2023/03/15 07:12:44;;;;;;;;;;;;;;;;;;5093269;28;19970;-86
2023/03/15 07:15:10;;;;;;;;;;;;;;;;;;5093366;28;20398;-87
2023/03/15 07:17:36;;;;;;;;;;;;;;;;;;5075116;28;19920;-86
2023/03/15 07:20:01;;;;;;;;;;;;;;;;;;5093273;28;20497;-87
2023/03/15 07:22:27;;;;;;;;;;;;;;;;;;5077432;28;20279;-86
2023/03/15 07:24:52;;;;;;;;;;;;;;;;;;5078594;28;20306;-86
2023/03/15 07:27:17;;;;;;;;;;;;;;;;;;5097142;28;19922;-86
2023/03/15 07:29:43;;;;;;;;;;;;;;;;;;5096737;28;20379;-86
2023/03/15 07:32:08;;;;;;;;;;;;;;;;;;5096827;28;19920;-87
2023/03/15 07:34:34;;;;;;;;;;;;;;;;;;5078623;28;19923;-86
2023/03/15 07:36:59;;;;;;;;;;;;;;;;;;5096888;28;20011;-87
2023/03/15 07:39:25;;;;;;;;;;;;;;;;;;5096767;28;19916;-88
2023/03/15 07:41:54;;;;;;;;;;;;;;;;;;5096632;28;19916;-88
2023/03/15 07:44:20;;;;;;;;;;;;;;;;;;5096549;28;19916;-88
2023/03/15 07:46:45;;;;;;;;;;;;;;;;;;5096329;28;20371;-87
2023/03/15 07:49:11;;;;;;;;;;;;;;;;;;5078101;28;19916;-86
2023/03/15 07:51:36;;;;;;;;;;;;;;;;;;5078350;28;19955;-88
2023/03/15 07:54:02;;;;;;;;;;;;;;;;;;5096266;28;19912;-87
2023/03/15 07:56:27;;;;;;;;;;;;;;;;;;5096344;28;20018;-88
2023/03/15 07:58:53;;;;;;;;;;;;;;;;;;5078135;28;19923;-87
2023/03/15 08:01:18;;;;;;;;;;;;;;;;;;5096133;28;19928;-87
2023/03/15 08:03:44;;;;;;;;;;;;;;;;;;5096507;28;19920;-87
2023/03/15 08:06:10;;;;;;;;;;;;;;;;;;5095854;28;20429;-87
2023/03/15 08:08:36;;;;;;;;;;;;;;;;;;5096105;28;20283;-87
2023/03/15 08:11:03;;;;;;;;;;;;;;;;;;5077809;28;19920;-86
2023/03/15 08:13:29;;;;;;;;;;;;;;;;;;5077743;28;20396;-87
2023/03/15 08:15:54;;;;;;;;;;;;;;;;;;5096014;28;19933;-88
2023/03/15 08:18:19;;;;;;;;;;;;;;;;;;5096004;28;19962;-86
2023/03/15 08:20:45;;;;;;;;;;;;;;;;;;5095751;28;19924;-88
2023/03/15 08:23:15;;;;;;;;;;;;;;;;;;5077632;28;19916;-88
2023/03/15 08:25:41;;;;;;;;;;;;;;;;;;5077484;28;19916;-87
2023/03/15 08:28:07;;;;;;;;;;;;;;;;;;5095750;28;19998;-88
2023/03/15 08:30:32;;;;;;;;;;;;;;;;;;5095618;28;20011;-87
2023/03/15 08:32:58;;;;;;;;;;;;;;;;;;5095408;28;19920;-86
2023/03/15 08:35:23;;;;;;;;;;;;;;;;;;5095466;28;20383;-87
2023/03/15 08:37:51;;;;;;;;;;;;;;;;;;5095378;28;20383;-87
2023/03/15 08:40:24;;;;;;;;;;;;;;;;;;5077231;28;19962;-88
2023/03/15 08:42:50;;;;;;;;;;;;;;;;;;5077316;28;19956;-87
2023/03/15 08:45:16;;;;;;;;;;;;;;;;;;5095293;28;19916;-87
2023/03/15 08:47:42;;;;;;;;;;;;;;;;;;5095277;28;19965;-87
2023/03/15 08:50:09;;;;;;;;;;;;;;;;;;5095419;28;20390;-87
2023/03/15 08:52:35;;;;;;;;;;;;;;;;;;5095067;28;19923;-86
2023/03/15 08:55:00;;;;;;;;;;;;;;;;;;5095219;28;19916;-87
2023/03/15 08:57:27;;;;;;;;;;;;;;;;;;5095035;28;20014;-86
2023/03/15 08:59:53;;;;;;;;;;;;;;;;;;5076802;28;19934;-86
2023/03/15 09:02:19;;;;;;;;;;;;;;;;;;5076745;28;19924;-86
2023/03/15 09:04:44;;;;;;;;;;;;;;;;;;5094821;28;19927;-87
2023/03/15 09:07:11;;;;;;;;;;;;;;;;;;5094885;28;20323;-87
2023/03/15 09:09:36;;;;;;;;;;;;;;;;;;5094739;28;19949;-87
2023/03/15 09:12:02;;;;;;;;;;;;;;;;;;5076679;28;20025;-87
2023/03/15 09:14:27;;;;;;;;;;;;;;;;;;5094703;28;20043;-87
2023/03/15 09:16:53;;;;;;;;;;;;;;;;;;5094700;28;20352;-88
2023/03/15 09:19:18;;;;;;;;;;;;;;;;;;5094781;28;20447;-86
2023/03/15 09:21:45;;;;;;;;;;;;;;;;;;5094811;28;19916;-86
2023/03/15 09:24:11;;;;;;;;;;;;;;;;;;5095156;28;19957;-87
2023/03/15 09:26:36;;;;;;;;;;;;;;;;;;5095259;28;19966;-88
2023/03/15 09:29:02;;;;;;;;;;;;;;;;;;5097919;28;20137;-86
2023/03/15 09:31:30;;;;;;;;;;;;;;;;;;5102977;28;21427;-87
2023/03/15 09:33:57;;;;;;;;;;;;;;;;;;5115242;28;19947;-87
2023/03/15 09:36:22;;;;;;;;;;;;;;;;;;5101838;28;19943;-86
2023/03/15 09:38:48;;;;;;;;;;;;;;;;;;5084544;28;19920;-87
2023/03/15 09:41:25;;;;;;;;;;;;;;;;;;5094735;28;19923;-88
2023/03/15 09:43:57;;;;;;;;;;;;;;;;;;5094348;28;20013;-88
2023/03/15 09:46:31;;;;;;;;;;;;;;;;;;5094670;28;20375;-88
2023/03/15 09:49:07;;;;;;;;;;;;;;;;;;5094457;28;19923;-88
2023/03/15 09:51:34;;;;;;;;;;;;;;;;;;5094393;28;19916;-87
2023/03/15 09:54:02;;;;;;;;;;;;;;;;;;5076153;28;19924;-87
2023/03/15 09:56:39;;;;;;;;;;;;;;;;;;5076508;28;19916;-87
2023/03/15 09:59:05;;;;;;;;;;;;;;;;;;5094004;28;19916;-87
2023/03/15 10:01:33;;;;;;;;;;;;;;;;;;5093990;28;19916;-87
2023/03/15 10:04:01;;;;;;;;;;;;;;;;;;5093882;28;19920;-87
2023/03/15 10:06:34;;;;;;;;;;;;;;;;;;5093940;28;20295;-87
2023/03/15 10:09:02;;;;;;;;;;;;;;;;;;5093945;28;19978;-87
2023/03/15 10:11:46;;;;;;;;;;;;;;;;;;5094106;28;19969;-87
2023/03/15 10:14:24;;;;;;;;;;;;;;;;;;5094167;28;20276;-87
2023/03/15 10:16:50;;;;;;;;;;;;;;;;;;5093785;28;19927;-87
2023/03/15 10:19:21;;;;;;;;;;;;;;;;;;5093924;28;19923;-86
2023/03/15 10:21:49;;;;;;;;;;;;;;;;;;5094119;28;19916;-87
2023/03/15 10:24:34;;;;;;;;;;;;;;;;;;5093800;28;19916;-87
2023/03/15 10:27:06;;;;;;;;;;;;;;;;;;5093893;28;19922;-87
2023/03/15 10:29:32;;;;;;;;;;;;;;;;;;5093671;28;19916;-87
2023/03/15 10:31:57;;;;;;;;;;;;;;;;;;5093719;28;19916;-87
2023/03/15 10:34:25;;;;;;;;;;;;;;;;;;5093804;28;19940;-87
2023/03/15 10:36:54;;;;;;;;;;;;;;;;;;5093642;28;20011;-87
2023/03/15 10:39:20;;;;;;;;;;;;;;;;;;5075667;28;19931;-88
2023/03/15 10:41:46;;;;;;;;;;;;;;;;;;5075508;28;19916;-88
2023/03/15 10:44:17;;;;;;;;;;;;;;;;;;5093591;28;19916;-88
2023/03/15 10:46:59;;;;;;;;;;;;;;;;;;5093786;28;19923;-87
2023/03/15 10:49:31;;;;;;;;;;;;;;;;;;5093480;28;20383;-87
2023/03/15 10:51:57;;;;;;;;;;;;;;;;;;5075430;28;20355;-89
2023/03/15 10:54:23;;;;;;;;;;;;;;;;;;5093411;28;19976;-88
2023/03/15 10:57:09;;;;;;;;;;;;;;;;;;5094783;28;19920;-88
2023/03/15 10:59:35;;;;;;;;;;;;;;;;;;5083163;28;19924;-87
2023/03/15 11:02:12;;;;;;;;;;;;;;;;;;5079101;28;19920;-87
2023/03/15 11:04:42;;;;;;;;;;;;;;;;;;5097162;28;20375;-87
2023/03/15 11:07:07;;;;;;;;;;;;;;;;;;5078994;28;19965;-87
2023/03/15 11:09:40;;;;;;;;;;;;;;;;;;5097153;28;19920;-88
2023/03/15 11:12:07;;;;;;;;;;;;;;;;;;5079333;28;19916;-87
2023/03/15 11:14:40;;;;;;;;;;;;;;;;;;5078818;28;19912;-88
2023/03/15 11:17:10;;;;;;;;;;;;;;;;;;5097062;28;20011;-86
2023/03/15 11:19:40;;;;;;;;;;;;;;;;;;5097417;28;19918;-88
2023/03/15 11:22:10;;;;;;;;;;;;;;;;;;5078797;28;19961;-87
2023/03/15 11:24:35;;;;;;;;;;;;;;;;;;5078728;28;19966;-87
2023/03/15 11:27:02;;;;;;;;;;;;;;;;;;5097186;28;19916;-87
2023/03/15 11:29:33;;;;;;;;;;;;;;;;;;5096758;28;20010;-88
2023/03/15 11:32:01;;;;;;;;;;;;;;;;;;5078682;28;20367;-87
2023/03/15 11:34:26;;;;;;;;;;;;;;;;;;5096844;28;19923;-87
2023/03/15 11:36:54;;;;;;;;;;;;;;;;;;5096669;28;19998;-87
2023/03/15 11:39:28;;;;;;;;;;;;;;;;;;5078619;28;20367;-88
2023/03/15 11:41:58;;;;;;;;;;;;;;;;;;5096657;28;19985;-88
2023/03/15 11:44:38;;;;;;;;;;;;;;;;;;5096451;28;19970;-88
2023/03/15 11:47:10;;;;;;;;;;;;;;;;;;5096505;28;20011;-87
2023/03/15 11:49:55;;;;;;;;;;;;;;;;;;5096473;28;19971;-87
2023/03/15 11:52:22;;;;;;;;;;;;;;;;;;5096580;28;19924;-87
2023/03/15 11:54:47;;;;;;;;;;;;;;;;;;5096327;28;19916;-87
2023/03/15 11:57:28;;;;;;;;;;;;;;;;;;5096274;28;19969;-87
2023/03/15 11:59:54;;;;;;;;;;;;;;;;;;5096335;28;20356;-87
2023/03/15 12:02:20;;;;;;;;;;;;;;;;;;5096159;28;19965;-88
2023/03/15 12:04:49;;;;;;;;;;;;;;;;;;5095860;28;20386;-87
2023/03/15 12:07:15;;;;;;;;;;;;;;;;;;5095665;28;19920;-89
2023/03/15 12:09:46;;;;;;;;;;;;;;;;;;5095922;28;20283;-88
2023/03/15 12:12:24;;;;;;;;;;;;;;;;;;5077862;28;20018;-86
2023/03/15 12:15:01;;;;;;;;;;;;;;;;;;5095942;28;19920;-87
2023/03/15 12:17:27;;;;;;;;;;;;;;;;;;5095830;28;19916;-87
2023/03/15 12:20:00;;;;;;;;;;;;;;;;;;5078198;28;19995;-87
2023/03/15 12:22:29;;;;;;;;;;;;;;;;;;5093322;28;19966;-86
2023/03/15 12:24:57;;;;;;;;;;;;;;;;;;5094935;28;19992;-86
2023/03/15 12:27:23;;;;;;;;;;;;;;;;;;5084944;28;19916;-87
2023/03/15 12:29:57;;;;;;;;;;;;;;;;;;5094633;28;19920;-87
2023/03/15 12:32:23;;;;;;;;;;;;;;;;;;5095586;28;20010;-86
2023/03/15 12:34:52;;;;;;;;;;;;;;;;;;5095418;28;20387;-85
2023/03/15 12:37:20;;;;;;;;;;;;;;;;;;5077217;28;19927;-85
2023/03/15 12:39:47;;;;;;;;;;;;;;;;;;5077264;28;19912;-85
2023/03/15 12:42:32;;;;;;;;;;;;;;;;;;5095227;28;20398;-84
2023/03/15 12:45:30;;;;;;;;;;;;;;;;;;5081012;28;19916;-85
2023/03/15 12:47:55;;;;;;;;;;;;;;;;;;5050048;28;19916;-84
2023/03/15 12:50:33;;;;;;;;;;;;;;;;;;5095217;28;19916;-84
2023/03/15 12:52:59;;;;;;;;;;;;;;;;;;5076957;28;20302;-85
2023/03/15 12:55:27;;;;;;;;;;;;;;;;;;5077004;28;20457;-84
2023/03/15 12:57:56;;;;;;;;;;;;;;;;;;5095228;28;19916;-85
2023/03/15 13:00:22;;;;;;;;;;;;;;;;;;5094944;28;19956;-85
2023/03/15 13:03:04;;;;;;;;;;;;;;;;;;5075919;28;19916;-86
2023/03/15 13:05:42;;;;;;;;;;;;;;;;;;5060795;28;20406;-86
2023/03/15 13:08:16;;;;;;;;;;;;;;;;;;5084446;28;19916;-85
2023/03/15 13:10:48;;;;;;;;;;;;;;;;;;5093275;28;19920;-84
2023/03/15 13:13:32;;;;;;;;;;;;;;;;;;5094905;28;19923;-85
2023/03/15 13:16:07;;;;;;;;;;;;;;;;;;5095218;28;19923;-85
2023/03/15 13:18:40;;;;;;;;;;;;;;;;;;5076472;28;19924;-85
2023/03/15 13:21:23;;;;;;;;;;;;;;;;;;5094431;28;19920;-85
2023/03/15 13:23:50;;;;;;;;;;;;;;;;;;5087596;28;19973;-87
2023/03/15 13:26:19;;;;;;;;;;;;;;;;;;5083061;28;19993;-87
2023/03/15 13:28:50;;;;;;;;;;;;;;;;;;5098514;28;19981;-86
2023/03/15 13:31:19;;;;;;;;;;;;;;;;;;5111066;28;19927;-86
2023/03/15 13:33:56;;;;;;;;;;;;;;;;;;5099099;28;19907;-87
2023/03/15 13:36:24;;;;;;;;;;;;;;;;;;5119930;28;19935;-87
2023/03/15 13:38:51;;;;;;;;;;;;;;;;;;5083894;28;20276;-87
2023/03/15 13:41:23;;;;;;;;;;;;;;;;;;5094552;28;19920;-87
2023/03/15 13:43:50;;;;;;;;;;;;;;;;;;5094325;28;19923;-86
2023/03/15 13:46:21;;;;;;;;;;;;;;;;;;5076112;28;20284;-86
2023/03/15 13:48:47;;;;;;;;;;;;;;;;;;5076042;28;20372;-86
2023/03/15 13:51:22;;;;;;;;;;;;;;;;;;5094228;28;19999;-86
2023/03/15 13:53:48;;;;;;;;;;;;;;;;;;5087600;28;19924;-86
2023/03/15 13:56:20;;;;;;;;;;;;;;;;;;5084622;28;19966;-86
2023/03/15 13:58:45;;;;;;;;;;;;;;;;;;5094082;28;20345;-86
2023/03/15 14:01:11;;;;;;;;;;;;;;;;;;5092468;28;19928;-87
2023/03/15 14:03:37;;;;;;;;;;;;;;;;;;5093617;28;19920;-85
2023/03/15 14:06:02;;;;;;;;;;;;;;;;;;5093799;28;19981;-86
2023/03/15 14:08:30;;;;;;;;;;;;;;;;;;5092348;28;19927;-87
2023/03/15 14:11:09;;;;;;;;;;;;;;;;;;5089647;28;19920;-86
2023/03/15 14:13:47;;;;;;;;;;;;;;;;;;5093763;28;19922;-87
2023/03/15 14:16:15;;;;;;;;;;;;;;;;;;5093817;28;19961;-85
2023/03/15 14:18:41;;;;;;;;;;;;;;;;;;5093689;28;20336;-85
2023/03/15 14:21:06;;;;;;;;;;;;;;;;;;5093806;28;20014;-85
2023/03/15 14:23:34;;;;;;;;;;;;;;;;;;5093644;28;19912;-85
2023/03/15 14:26:00;;;;;;;;;;;;;;;;;;5093601;28;19920;-85
2023/03/15 14:28:25;;;;;;;;;;;;;;;;;;5091378;28;19916;-85
2023/03/15 14:30:55;;;;;;;;;;;;;;;;;;5074479;28;19927;-85
2023/03/15 14:33:27;;;;;;;;;;;;;;;;;;5094223;28;19931;-86
2023/03/15 14:35:56;;;;;;;;;;;;;;;;;;5097918;28;19927;-86
2023/03/15 14:38:22;;;;;;;;;;;;;;;;;;5094505;28;19924;-87
2023/03/15 14:40:48;;;;;;;;;;;;;;;;;;5094106;28;19977;-86
2023/03/15 14:43:14;;;;;;;;;;;;;;;;;;5094677;28;20005;-85
2023/03/15 14:45:41;;;;;;;;;;;;;;;;;;5083841;28;19920;-84
2023/03/15 14:48:10;;;;;;;;;;;;;;;;;;5095866;28;19947;-84
2023/03/15 14:50:37;;;;;;;;;;;;;;;;;;5092276;28;19943;-85
2023/03/15 14:53:06;;;;;;;;;;;;;;;;;;5093712;28;19931;-86
2023/03/15 14:55:33;;;;;;;;;;;;;;;;;;5083540;28;19928;-86
2023/03/15 14:57:59;;;;;;;;;;;;;;;;;;5093071;28;20083;-88
2023/03/15 15:00:25;;;;;;;;;;;;;;;;;;5095093;28;20295;-86
2023/03/15 15:02:52;;;;;;;;;;;;;;;;;;5091205;28;19920;-86
2023/03/15 15:05:20;;;;;;;;;;;;;;;;;;5085118;28;19935;-86
2023/03/15 15:07:46;;;;;;;;;;;;;;;;;;5066563;28;20372;-87
2023/03/15 15:10:12;;;;;;;;;;;;;;;;;;5083686;28;20481;-86
2023/03/15 15:12:37;;;;;;;;;;;;;;;;;;5065036;28;20022;-84
2023/03/15 15:15:16;;;;;;;;;;;;;;;;;;5082180;28;19944;-87
2023/03/15 15:17:41;;;;;;;;;;;;;;;;;;5065449;28;19925;-88
2023/03/15 15:20:07;;;;;;;;;;;;;;;;;;5083807;28;20380;-87
2023/03/15 15:22:33;;;;;;;;;;;;;;;;;;5083772;28;19925;-87
2023/03/15 15:24:59;;;;;;;;;;;;;;;;;;5087655;28;19924;-87
2023/03/15 15:27:24;;;;;;;;;;;;;;;;;;5085817;28;20461;-87
2023/03/15 15:29:51;;;;;;;;;;;;;;;;;;5086573;28;19920;-88
2023/03/15 15:32:16;;;;;;;;;;;;;;;;;;5083971;28;20364;-87
2023/03/15 15:34:42;;;;;;;;;;;;;;;;;;5084063;28;19916;-87
2023/03/15 15:37:10;;;;;;;;;;;;;;;;;;5083666;28;20361;-87
2023/03/15 15:39:35;;;;;;;;;;;;;;;;;;5065196;28;20283;-87
2023/03/15 15:42:01;;;;;;;;;;;;;;;;;;5089103;28;19920;-87
2023/03/15 15:44:26;;;;;;;;;;;;;;;;;;5082191;28;20394;-87
2023/03/15 15:46:52;;;;;;;;;;;;;;;;;;5084351;28;19935;-87
2023/03/15 15:49:18;;;;;;;;;;;;;;;;;;5073265;28;19916;-87
2023/03/15 15:51:44;;;;;;;;;;;;;;;;;;5096307;28;20005;-87
2023/03/15 15:54:15;;;;;;;;;;;;;;;;;;5096418;28;20697;-87
2023/03/15 15:56:44;;;;;;;;;;;;;;;;;;5096331;28;19927;-87
2023/03/15 15:59:12;;;;;;;;;;;;;;;;;;5096157;28;20429;-85
2023/03/15 16:01:38;;;;;;;;;;;;;;;;;;5096123;28;19923;-85
2023/03/15 16:04:03;;;;;;;;;;;;;;;;;;5077751;28;19916;-87
2023/03/15 16:06:29;;;;;;;;;;;;;;;;;;5095940;28;19920;-86
2023/03/15 16:08:54;;;;;;;;;;;;;;;;;;5095990;28;19946;-85
2023/03/15 16:11:20;;;;;;;;;;;;;;;;;;5095993;28;19916;-85
2023/03/15 16:13:48;;;;;;;;;;;;;;;;;;5077905;28;20362;-86
2023/03/15 16:16:14;;;;;;;;;;;;;;;;;;5095989;28;19915;-85
2023/03/15 16:18:40;;;;;;;;;;;;;;;;;;5077787;28;19927;-85
2023/03/15 16:21:06;;;;;;;;;;;;;;;;;;5095678;28;19916;-88
2023/03/15 16:23:32;;;;;;;;;;;;;;;;;;5077356;28;20000;-86
2023/03/15 16:25:57;;;;;;;;;;;;;;;;;;5095458;28;19916;-86
2023/03/15 16:28:22;;;;;;;;;;;;;;;;;;5094157;28;19930;-84
2023/03/15 16:30:48;;;;;;;;;;;;;;;;;;5095573;28;19927;-84
2023/03/15 16:33:15;;;;;;;;;;;;;;;;;;5077338;28;19923;-85
2023/03/15 16:35:42;;;;;;;;;;;;;;;;;;5095488;28;19998;-85
2023/03/15 16:38:13;;;;;;;;;;;;;;;;;;5095411;28;19923;-85
2023/03/15 16:40:40;;;;;;;;;;;;;;;;;;5095582;28;20254;-84
2023/03/15 16:43:07;;;;;;;;;;;;;;;;;;5095207;28;19916;-84
2023/03/15 16:45:32;;;;;;;;;;;;;;;;;;5095627;28;19961;-84
2023/03/15 16:47:58;;;;;;;;;;;;;;;;;;5095265;28;19916;-83